CPX225 Details

Departure: Ted Stevens Anchorage International Airport (PANC) at 0000 UTC
Arrival: Los Angeles International Airport (KLAX) at 0425 UTC
Route: MDO B453 KURTT B453 KYLLE B453 BOXER ENI OAK TILLT HUULL HUULL2
Notes:


Current Weather Information
PANC 230653Z 29009KT 10SM FEW070 OVC110 04/01 A2972 RMK AO2 SLP065 T00390011
KLAX 230653Z 07003KT 10SM CLR 22/09 A2995 RMK AO2 SLP136 T02170089